createdAt,value
2018-11-28T00:02:25.132Z,95520.81
2018-11-28T00:04:54.486Z,95522.09
2018-11-28T00:07:23.828Z,95519.72
2018-11-28T00:09:53.170Z,95515.39
2018-11-28T00:12:22.546Z,95513.41
2018-11-28T00:14:51.934Z,95520.60
2018-11-28T00:17:21.322Z,95519.56
2018-11-28T00:19:50.717Z,95517.31
2018-11-28T00:22:20.097Z,95517.81
2018-11-28T00:24:49.539Z,95517.00
2018-11-28T00:27:18.896Z,95515.84
2018-11-28T00:29:48.277Z,95516.82
2018-11-28T00:32:17.671Z,95519.48
2018-11-28T00:34:46.983Z,95521.76
2018-11-28T00:37:16.377Z,95516.14
2018-11-28T00:39:45.767Z,95526.13
2018-11-28T00:42:17.980Z,95518.84
2018-11-28T00:44:47.371Z,95528.81
2018-11-28T00:47:16.756Z,95525.42
2018-11-28T00:49:46.155Z,95528.00
2018-11-28T00:52:15.570Z,95524.56
2018-11-28T00:54:45.485Z,95527.33
2018-11-28T00:57:14.857Z,95529.53
2018-11-28T00:59:44.244Z,95534.81
2018-11-28T01:02:13.700Z,95523.11
2018-11-28T01:04:43.040Z,95532.22
2018-11-28T01:07:13.928Z,95532.97
2018-11-28T01:09:43.297Z,95538.74
2018-11-28T01:12:12.730Z,95543.00
2018-11-28T01:14:42.144Z,95542.82
2018-11-28T01:17:11.564Z,95548.62
2018-11-28T01:19:40.956Z,95548.55
2018-11-28T01:22:10.295Z,95555.15
2018-11-28T01:24:39.668Z,95550.83
2018-11-28T01:27:09.033Z,95553.09
2018-11-28T01:29:38.422Z,95554.76
2018-11-28T01:32:07.867Z,95557.25
2018-11-28T01:34:37.233Z,95555.80
2018-11-28T01:37:06.673Z,95557.92
2018-11-28T01:39:36.003Z,95558.18
2018-11-28T01:42:05.576Z,95556.27
2018-11-28T01:44:34.984Z,95554.59
2018-11-28T01:47:04.356Z,95550.92
2018-11-28T01:49:33.733Z,95553.49
2018-11-28T01:52:03.187Z,95555.42
2018-11-28T01:54:32.537Z,95556.17
2018-11-28T01:57:01.877Z,95555.52
2018-11-28T01:59:31.284Z,95563.36
2018-11-28T02:02:00.694Z,95558.17
2018-11-28T02:04:30.073Z,95546.41
2018-11-28T02:06:59.483Z,95552.31
2018-11-28T02:09:28.963Z,95543.00
2018-11-28T02:11:58.328Z,95548.99
2018-11-28T02:14:27.676Z,95538.87
2018-11-28T02:16:57.062Z,95556.25
2018-11-28T02:19:26.397Z,95555.34
2018-11-28T02:21:55.784Z,95549.45
2018-11-28T02:24:25.167Z,95541.05
2018-11-28T02:26:54.670Z,95552.80
2018-11-28T02:29:24.405Z,95556.63
2018-11-28T02:31:53.751Z,95564.44
2018-11-28T02:34:23.262Z,95555.04
2018-11-28T02:36:52.965Z,95569.77
2018-11-28T02:39:22.482Z,95566.55
2018-11-28T02:41:52.002Z,95567.86
2018-11-28T02:44:21.577Z,95574.28
2018-11-28T02:46:50.940Z,95581.45
2018-11-28T02:49:20.273Z,95578.30
2018-11-28T02:51:49.663Z,95577.95
2018-11-28T02:54:19.020Z,95585.16
2018-11-28T02:56:48.390Z,95579.94
2018-11-28T02:59:17.755Z,95581.23
2018-11-28T03:01:47.160Z,95578.27
2018-11-28T03:04:16.528Z,95578.90
2018-11-28T03:06:45.879Z,95578.59
2018-11-28T03:09:15.257Z,95582.90
2018-11-28T03:11:44.613Z,95573.23
2018-11-28T03:14:14.015Z,95570.31
2018-11-28T03:16:43.416Z,95582.06
2018-11-28T03:19:12.858Z,95585.09
2018-11-28T03:21:42.220Z,95574.23
2018-11-28T03:24:11.611Z,95578.52
2018-11-28T03:26:40.954Z,95581.37
2018-11-28T03:29:10.343Z,95583.11
2018-11-28T03:31:39.723Z,95580.36
2018-11-28T03:34:09.125Z,95587.01
2018-11-28T03:36:38.641Z,95586.98
2018-11-28T03:39:09.897Z,95584.94
2018-11-28T03:41:39.299Z,95594.05
2018-11-28T03:44:08.636Z,95591.69
2018-11-28T03:46:37.987Z,95594.26
2018-11-28T03:49:08.378Z,95582.38
2018-11-28T03:51:37.756Z,95594.48
2018-11-28T03:54:07.158Z,95590.75
2018-11-28T03:56:36.500Z,95598.36
2018-11-28T03:59:06.405Z,95609.27
2018-11-28T04:01:36.774Z,95604.74
2018-11-28T04:04:06.236Z,95607.20
2018-11-28T04:06:35.666Z,95607.53
2018-11-28T04:09:08.206Z,95608.03
2018-11-28T04:11:37.604Z,95607.45
2018-11-28T04:14:06.977Z,95597.91
2018-11-28T04:16:36.336Z,95604.20
2018-11-28T04:19:06.337Z,95603.10
2018-11-28T04:21:35.735Z,95599.70
2018-11-28T04:24:05.129Z,95594.70
2018-11-28T04:26:34.467Z,95592.84
2018-11-28T04:29:03.857Z,95595.83
2018-11-28T04:31:33.224Z,95595.05
2018-11-28T04:34:02.568Z,95598.91
2018-11-28T04:36:31.932Z,95592.70
2018-11-28T04:39:01.407Z,95597.13
2018-11-28T04:41:30.783Z,95603.37
2018-11-28T04:44:00.171Z,95597.13
2018-11-28T04:46:29.537Z,95601.44
2018-11-28T04:48:58.940Z,95605.61
2018-11-28T04:51:28.321Z,95610.49
2018-11-28T04:53:57.661Z,95606.23
2018-11-28T04:56:27.067Z,95611.54
2018-11-28T04:58:56.422Z,95613.24
2018-11-28T05:01:25.806Z,95613.45
2018-11-28T05:03:55.208Z,95614.99
2018-11-28T05:07:30.742Z,95614.07
2018-11-28T05:10:00.438Z,95612.56
2018-11-28T05:12:29.824Z,95609.09
2018-11-28T05:14:59.201Z,95606.01
2018-11-28T05:17:28.597Z,95607.36
2018-11-28T05:19:58.067Z,95606.20
2018-11-28T05:22:27.435Z,95605.46
2018-11-28T05:24:58.064Z,95612.86
2018-11-28T05:27:27.435Z,95612.47
2018-11-28T05:29:56.829Z,95608.45
2018-11-28T05:32:27.152Z,95604.88
2018-11-28T05:34:56.487Z,95607.36
2018-11-28T05:37:25.858Z,95618.48
2018-11-28T05:39:55.241Z,95620.70
2018-11-28T05:42:24.626Z,95623.33
2018-11-28T05:49:51.940Z,95614.91
2018-11-28T05:52:21.345Z,95622.78
2018-11-28T05:54:51.081Z,95625.16
2018-11-28T05:57:20.455Z,95623.88
2018-11-28T05:59:49.814Z,95627.28
2018-11-28T06:02:19.212Z,95629.18
2018-11-28T06:04:48.564Z,95628.38
2018-11-28T06:12:17.628Z,95629.47
2018-11-28T06:14:46.974Z,95635.31
2018-11-28T06:17:16.514Z,95638.63
2018-11-28T06:19:46.033Z,95638.78
2018-11-28T06:22:15.437Z,95635.77
2018-11-28T06:24:44.820Z,95630.69
2018-11-28T06:27:14.218Z,95633.35
2018-11-28T06:29:43.580Z,95641.02
2018-11-28T06:32:12.977Z,95632.94
2018-11-28T06:34:42.385Z,95644.19
2018-11-28T06:37:11.752Z,95637.86
2018-11-28T06:39:41.128Z,95638.87
2018-11-28T06:42:10.513Z,95646.91
2018-11-28T06:44:39.853Z,95645.09
2018-11-28T06:47:09.212Z,95642.09
2018-11-28T06:49:38.611Z,95644.91
2018-11-28T06:52:07.966Z,95644.06
2018-11-28T06:54:38.327Z,95646.64
2018-11-28T06:57:07.680Z,95658.92
2018-11-28T06:59:38.391Z,95657.58
2018-11-28T07:02:06.580Z,95667.25
2018-11-28T07:04:35.933Z,95665.19
2018-11-28T07:07:06.632Z,95672.72
2018-11-28T07:09:35.977Z,95668.86
2018-11-28T07:12:05.371Z,95676.30
2018-11-28T07:14:34.765Z,95682.24
2018-11-28T07:17:04.122Z,95685.52
2018-11-28T07:19:33.463Z,95679.41
2018-11-28T07:22:03.535Z,95682.66
2018-11-28T07:24:32.329Z,95680.81
2018-11-28T07:27:01.671Z,95688.83
2018-11-28T07:29:31.284Z,95680.42
2018-11-28T07:32:00.643Z,95665.71
2018-11-28T07:34:30.016Z,95679.45
2018-11-28T07:36:59.352Z,95679.23
2018-11-28T07:39:28.668Z,95677.25
2018-11-28T07:41:58.004Z,95665.42
2018-11-28T07:44:27.539Z,95668.80
2018-11-28T07:46:56.892Z,95659.79
2018-11-28T07:49:26.207Z,95659.08
2018-11-28T07:51:55.819Z,95660.04
2018-11-28T07:54:25.235Z,95663.42
2018-11-28T07:56:54.531Z,95659.79
2018-11-28T07:59:23.894Z,95664.06
2018-11-28T08:01:53.375Z,95661.36
2018-11-28T08:04:22.829Z,95665.62
2018-11-28T08:06:52.009Z,95664.91
2018-11-28T08:09:21.359Z,95669.03
2018-11-28T08:11:50.656Z,95672.25
2018-11-28T08:14:20.064Z,95673.34
2018-11-28T08:16:49.403Z,95675.62
2018-11-28T08:19:23.876Z,95675.39
2018-11-28T08:21:48.197Z,95681.34
2018-11-28T08:24:17.574Z,95681.08
2018-11-28T08:26:46.924Z,95681.97
2018-11-28T08:29:16.360Z,95678.61
2018-11-28T08:31:45.704Z,95679.07
2018-11-28T08:34:15.007Z,95679.63
2018-11-28T08:36:44.356Z,95677.34
2018-11-28T08:39:13.693Z,95679.95
2018-11-28T08:41:43.067Z,95680.28
2018-11-28T08:44:12.331Z,95672.77
2018-11-28T08:46:41.704Z,95682.69
2018-11-28T08:49:11.070Z,95673.08
2018-11-28T08:51:40.409Z,95692.70
2018-11-28T08:54:09.833Z,95688.06
2018-11-28T08:56:39.122Z,95698.27
2018-11-28T08:59:08.455Z,95703.67
2018-11-28T09:01:37.747Z,95701.87
2018-11-28T09:04:07.257Z,95703.88
2018-11-28T09:06:36.564Z,95704.73
2018-11-28T09:09:07.807Z,95702.33
2018-11-28T09:11:38.284Z,95700.47
2018-11-28T09:14:07.620Z,95699.09
2018-11-28T09:16:36.980Z,95691.08
2018-11-28T09:19:06.356Z,95705.62
2018-11-28T09:21:35.691Z,95715.67
2018-11-28T09:24:06.899Z,95711.73
2018-11-28T09:26:36.298Z,95709.58
2018-11-28T09:29:05.919Z,95706.01
2018-11-28T09:31:35.298Z,95713.45
2018-11-28T09:34:04.640Z,95714.94
2018-11-28T09:36:34.760Z,95720.80
2018-11-28T09:39:05.373Z,95717.48
2018-11-28T09:41:34.727Z,95716.97
2018-11-28T09:44:04.066Z,95711.46
2018-11-28T09:46:33.583Z,95713.00
2018-11-28T09:49:03.935Z,95717.75
2018-11-28T09:51:33.277Z,95712.36
2018-11-28T09:54:02.629Z,95717.31
2018-11-28T09:56:31.979Z,95722.39
2018-11-28T09:59:01.300Z,95726.86
2018-11-28T10:06:28.711Z,95717.16
2018-11-28T10:08:58.046Z,95729.27
2018-11-28T10:11:27.412Z,95728.56
2018-11-28T10:13:56.800Z,95725.36
2018-11-28T10:16:26.149Z,95721.14
2018-11-28T10:18:55.475Z,95720.66
2018-11-28T10:21:24.884Z,95717.16
2018-11-28T10:23:54.800Z,95707.48
2018-11-28T10:26:24.176Z,95711.26
2018-11-28T10:28:53.519Z,95714.38
2018-11-28T10:31:22.946Z,95714.03
2018-11-28T10:33:52.293Z,95714.95
2018-11-28T10:36:22.884Z,95707.95
2018-11-28T10:38:52.234Z,95715.67
2018-11-28T10:41:21.604Z,95704.75
2018-11-28T10:43:50.952Z,95704.48
2018-11-28T10:46:20.305Z,95704.23
2018-11-28T10:48:49.672Z,95701.82
2018-11-28T10:51:18.996Z,95696.73
2018-11-28T10:53:48.324Z,95693.48
2018-11-28T10:56:17.739Z,95694.32
2018-11-28T10:58:47.081Z,95682.91
2018-11-28T11:01:21.653Z,95685.22
2018-11-28T11:03:55.346Z,95687.84
2018-11-28T11:06:29.939Z,95689.89
2018-11-28T11:09:04.378Z,95696.96
2018-11-28T11:11:38.672Z,95694.24
2018-11-28T11:14:13.267Z,95689.48
2018-11-28T11:16:42.565Z,95702.00
2018-11-28T11:19:11.891Z,95705.66
2018-11-28T11:21:41.264Z,95709.55
2018-11-28T11:24:10.633Z,95706.42
2018-11-28T11:26:39.978Z,95697.02
2018-11-28T11:29:09.376Z,95708.17
2018-11-28T11:31:38.830Z,95692.19
2018-11-28T11:34:08.212Z,95690.83
2018-11-28T11:36:37.569Z,95693.13
2018-11-28T11:39:08.330Z,95679.64
2018-11-28T11:41:37.664Z,95689.96
2018-11-28T11:44:06.996Z,95690.38
2018-11-28T11:46:36.318Z,95681.44
2018-11-28T11:49:05.988Z,95691.09
2018-11-28T11:51:36.116Z,95696.25
2018-11-28T11:54:05.677Z,95703.53
2018-11-28T11:56:35.072Z,95703.80
2018-11-28T11:59:04.412Z,95698.80
2018-11-28T12:01:33.817Z,95692.69
2018-11-28T12:04:04.200Z,95697.98
2018-11-28T12:06:33.603Z,95694.77
2018-11-28T12:09:03.364Z,95699.37
2018-11-28T12:11:32.696Z,95693.88
2018-11-28T12:14:02.035Z,95686.58
2018-11-28T12:16:32.435Z,95687.65
2018-11-28T12:19:01.787Z,95686.16
2018-11-28T12:21:31.168Z,95673.45
2018-11-28T12:24:00.523Z,95682.41
2018-11-28T12:26:29.958Z,95684.66
2018-11-28T12:29:00.526Z,95672.21
2018-11-28T12:31:29.881Z,95675.66
2018-11-28T12:33:59.292Z,95671.87
2018-11-28T12:36:28.621Z,95683.20
2018-11-28T12:38:58.061Z,95677.89
2018-11-28T12:41:27.444Z,95670.66
2018-11-28T12:43:56.846Z,95669.66
2018-11-28T12:46:26.201Z,95674.13
2018-11-28T12:48:55.576Z,95665.51
2018-11-28T12:51:24.956Z,95661.63
2018-11-28T12:53:54.324Z,95666.56
2018-11-28T12:56:23.685Z,95666.84
2018-11-28T12:58:53.004Z,95662.84
2018-11-28T13:01:22.345Z,95661.78
2018-11-28T13:03:51.675Z,95665.58
2018-11-28T13:06:21.010Z,95664.89
2018-11-28T13:08:50.373Z,95666.45
2018-11-28T13:11:19.718Z,95664.17
2018-11-28T13:13:49.077Z,95662.26
2018-11-28T13:16:18.440Z,95659.45
2018-11-28T13:18:47.829Z,95663.86
2018-11-28T13:21:17.171Z,95664.74
2018-11-28T13:23:46.580Z,95666.92
2018-11-28T13:26:15.929Z,95663.36
2018-11-28T13:28:45.298Z,95663.81
2018-11-28T13:31:14.648Z,95665.72
2018-11-28T13:33:44.004Z,95659.29
2018-11-28T13:36:13.352Z,95654.70
2018-11-28T13:38:42.708Z,95665.02
2018-11-28T13:41:12.062Z,95670.80
2018-11-28T13:43:41.368Z,95670.44
2018-11-28T13:46:10.723Z,95674.53
2018-11-28T13:48:40.067Z,95673.20
2018-11-28T13:51:09.397Z,95672.30
2018-11-28T13:53:38.752Z,95678.73
2018-11-28T13:58:37.457Z,95678.95
2018-11-28T14:01:07.141Z,95685.95
2018-11-28T14:03:36.520Z,95674.63
2018-11-28T14:06:06.273Z,95673.31
2018-11-28T14:08:35.599Z,95682.53
2018-11-28T14:11:05.503Z,95684.00
2018-11-28T14:13:34.855Z,95688.52
2018-11-28T14:16:04.235Z,95684.47
2018-11-28T14:18:33.572Z,95684.93
2018-11-28T14:21:02.936Z,95678.27
2018-11-28T14:23:32.292Z,95681.88
2018-11-28T14:26:01.689Z,95688.73
2018-11-28T14:28:31.054Z,95694.80
2018-11-28T14:31:00.452Z,95690.08
2018-11-28T14:33:29.840Z,95688.55
2018-11-28T14:35:59.176Z,95696.89
2018-11-28T14:38:28.579Z,95690.48
2018-11-28T14:43:26.140Z,95692.30
2018-11-28T14:45:55.509Z,95691.78
2018-11-28T14:48:24.920Z,95696.88
2018-11-28T14:50:54.277Z,95693.47
2018-11-28T14:53:23.645Z,95683.33
2018-11-28T14:55:53.051Z,95701.80
2018-11-28T14:58:22.463Z,95701.78
2018-11-28T15:00:51.792Z,95697.58
2018-11-28T15:03:21.687Z,95702.61
2018-11-28T15:06:59.388Z,95699.45
2018-11-28T15:09:36.126Z,95695.38
2018-11-28T15:12:11.727Z,95698.42
2018-11-28T15:14:39.612Z,95692.29
2018-11-28T15:17:08.948Z,95694.86
2018-11-28T15:19:39.599Z,95698.73
2018-11-28T15:22:08.957Z,95695.06
2018-11-28T15:24:38.393Z,95693.12
2018-11-28T15:27:07.749Z,95696.16
2018-11-28T15:29:37.060Z,95702.66
2018-11-28T15:32:06.664Z,95709.41
2018-11-28T15:34:36.000Z,95707.78
2018-11-28T15:37:06.035Z,95708.36
2018-11-28T15:39:35.368Z,95706.30
2018-11-28T15:42:04.773Z,95711.13
2018-11-28T15:44:35.150Z,95713.82
2018-11-28T15:47:04.638Z,95710.89
2018-11-28T15:49:33.985Z,95710.44
2018-11-28T15:52:03.353Z,95704.48
2018-11-28T15:54:32.694Z,95709.56
2018-11-28T15:57:03.377Z,95712.83
2018-11-28T15:59:32.712Z,95716.67
2018-11-28T16:02:02.079Z,95716.37
2018-11-28T16:04:31.397Z,95722.91
2018-11-28T16:07:00.797Z,95705.88
2018-11-28T16:09:35.514Z,95714.84
2018-11-28T16:12:05.391Z,95719.17
2018-11-28T16:14:34.745Z,95717.80
2018-11-28T16:17:04.096Z,95729.12
2018-11-28T16:19:33.461Z,95722.59
2018-11-28T16:22:02.829Z,95732.36
2018-11-28T16:29:29.523Z,95736.61
2018-11-28T16:31:58.901Z,95736.20
2018-11-28T16:34:29.342Z,95733.94
2018-11-28T16:36:58.660Z,95727.56
2018-11-28T16:39:28.647Z,95729.80
2018-11-28T16:41:58.001Z,95731.91
2018-11-28T16:44:27.334Z,95733.42
2018-11-28T16:46:57.381Z,95735.27
2018-11-28T16:49:26.695Z,95732.70
2018-11-28T16:51:56.113Z,95734.38
2018-11-28T16:54:25.477Z,95736.04
2018-11-28T16:56:54.861Z,95741.01
2018-11-28T16:59:30.662Z,95737.44
2018-11-28T17:01:54.901Z,95743.94
2018-11-28T17:04:24.277Z,95739.48
2018-11-28T17:06:53.657Z,95737.92
2018-11-28T17:09:23.037Z,95743.91
2018-11-28T17:11:52.356Z,95746.53
2018-11-28T17:14:21.723Z,95748.20
2018-11-28T17:16:51.060Z,95744.34
2018-11-28T17:19:20.412Z,95751.32
2018-11-28T17:21:49.727Z,95744.59
2018-11-28T17:24:19.045Z,95749.87
2018-11-28T17:26:48.472Z,95743.30
2018-11-28T17:29:17.823Z,95752.27
2018-11-28T17:31:47.241Z,95758.58
2018-11-28T17:34:16.584Z,95749.65
2018-11-28T17:36:45.945Z,95744.09
2018-11-28T17:39:15.578Z,95736.48
2018-11-28T17:41:44.982Z,95744.81
2018-11-28T17:44:14.349Z,95745.73
2018-11-28T17:46:43.822Z,95751.20
2018-11-28T17:49:14.081Z,95746.83
2018-11-28T17:51:43.463Z,95741.59
2018-11-28T17:54:12.792Z,95736.03
2018-11-28T17:56:42.193Z,95749.98
2018-11-28T17:59:11.601Z,95740.22
2018-11-28T18:01:42.287Z,95747.83
2018-11-28T18:04:11.667Z,95752.23
2018-11-28T18:06:41.049Z,95741.32
2018-11-28T18:09:11.920Z,95745.53
2018-11-28T18:11:41.270Z,95745.66
2018-11-28T18:14:10.814Z,95756.86
2018-11-28T18:16:40.149Z,95756.75
2018-11-28T18:19:09.551Z,95756.34
2018-11-28T18:21:39.032Z,95752.69
2018-11-28T18:24:08.367Z,95747.29
2018-11-28T18:26:38.944Z,95742.23
2018-11-28T18:29:08.564Z,95742.61
2018-11-28T18:31:37.916Z,95749.87
2018-11-28T18:34:07.328Z,95745.80
2018-11-28T18:36:36.728Z,95745.08
2018-11-28T18:39:09.337Z,95731.63
2018-11-28T18:41:38.719Z,95742.02
2018-11-28T18:44:08.286Z,95736.89
2018-11-28T18:46:37.799Z,95740.49
2018-11-28T18:49:07.155Z,95741.05
2018-11-28T18:51:36.464Z,95738.57
2018-11-28T18:54:05.873Z,95743.30
2018-11-28T18:56:35.504Z,95739.73
2018-11-28T18:59:04.831Z,95735.31
2018-11-28T19:01:34.217Z,95737.00
2018-11-28T19:04:03.609Z,95733.30
2018-11-28T19:06:32.935Z,95732.55
2018-11-28T19:09:02.274Z,95735.16
2018-11-28T19:11:31.684Z,95741.70
2018-11-28T19:14:01.044Z,95736.59
2018-11-28T19:16:30.421Z,95741.66
2018-11-28T19:18:59.845Z,95732.81
2018-11-28T19:21:29.188Z,95743.31
2018-11-28T19:23:58.617Z,95743.03
2018-11-28T19:26:27.931Z,95741.36
2018-11-28T19:28:58.311Z,95740.63
2018-11-28T19:31:27.688Z,95732.83
2018-11-28T19:33:57.084Z,95732.31
2018-11-28T19:36:26.443Z,95738.13
2018-11-28T19:38:55.842Z,95737.09
2018-11-28T19:41:27.341Z,95746.83
2018-11-28T19:43:56.703Z,95748.84
2018-11-28T19:46:26.147Z,95745.67
2018-11-28T19:48:55.516Z,95744.77
2018-11-28T19:51:24.849Z,95739.34
2018-11-28T19:53:55.128Z,95746.05
2018-11-28T19:56:24.556Z,95744.09
2018-11-28T19:58:53.910Z,95739.20
2018-11-28T20:01:23.295Z,95739.20
2018-11-28T20:06:23.334Z,95739.81
2018-11-28T20:08:52.789Z,95744.84
2018-11-28T20:11:22.188Z,95759.09
2018-11-28T20:13:51.586Z,95752.44
2018-11-28T20:16:20.976Z,95747.96
2018-11-28T20:18:50.452Z,95743.97
2018-11-28T20:21:19.823Z,95737.93
2018-11-28T20:23:49.200Z,95733.33
2018-11-28T20:26:18.586Z,95732.08
2018-11-28T20:28:48.011Z,95723.84
2018-11-28T20:31:17.391Z,95722.14
2018-11-28T20:33:46.902Z,95722.75
2018-11-28T20:36:16.290Z,95720.08
2018-11-28T20:38:45.751Z,95725.03
2018-11-28T20:41:15.117Z,95717.54
2018-11-28T20:43:44.486Z,95722.53
2018-11-28T20:46:13.945Z,95721.72
2018-11-28T20:48:43.277Z,95722.06
2018-11-28T20:51:12.591Z,95729.94
2018-11-28T20:53:41.957Z,95732.55
2018-11-28T20:56:17.832Z,95739.52
2018-11-28T20:58:48.272Z,95742.46
2018-11-28T21:01:17.686Z,95736.27
2018-11-28T21:03:47.051Z,95728.70
2018-11-28T21:06:16.426Z,95723.66
2018-11-28T21:08:45.835Z,95728.84
2018-11-28T21:16:12.951Z,95722.78
2018-11-28T21:18:42.321Z,95714.97
2018-11-28T21:21:12.271Z,95711.66
2018-11-28T21:23:41.626Z,95721.23
2018-11-28T21:26:10.984Z,95732.62
2018-11-28T21:28:40.358Z,95729.25
2018-11-28T21:31:09.702Z,95727.96
2018-11-28T21:38:36.677Z,95742.89
2018-11-28T21:41:06.285Z,95754.66
2018-11-28T21:43:35.819Z,95760.41
2018-11-28T21:46:05.349Z,95756.61
2018-11-28T21:48:34.685Z,95754.30
2018-11-28T21:51:04.030Z,95756.09
2018-11-28T21:53:33.366Z,95751.20
2018-11-28T21:56:03.958Z,95742.92
2018-11-28T21:58:33.332Z,95751.92
2018-11-28T22:01:02.865Z,95743.30
2018-11-28T22:03:32.303Z,95760.30
2018-11-28T22:06:01.650Z,95764.86
2018-11-28T22:08:31.012Z,95766.00
2018-11-28T22:11:00.409Z,95761.77
2018-11-28T22:13:29.794Z,95771.36
2018-11-28T22:15:59.844Z,95756.94
2018-11-28T22:18:29.492Z,95756.48
2018-11-28T22:20:59.980Z,95763.90
2018-11-28T22:23:29.324Z,95759.90
2018-11-28T22:25:58.666Z,95766.62
2018-11-28T22:28:28.070Z,95762.53
2018-11-28T22:30:57.492Z,95754.77
2018-11-28T22:33:28.356Z,95760.64
2018-11-28T22:35:57.675Z,95758.85
2018-11-28T22:38:27.010Z,95753.09
2018-11-28T22:40:56.372Z,95757.72
2018-11-28T22:43:25.766Z,95753.62
2018-11-28T22:45:55.091Z,95755.27
2018-11-28T22:48:24.459Z,95758.02
2018-11-28T22:50:53.860Z,95763.36
2018-11-28T22:53:23.232Z,95765.88
2018-11-28T22:55:52.928Z,95753.02
2018-11-28T22:58:22.291Z,95763.97
2018-11-28T23:00:56.946Z,95761.39
2018-11-28T23:03:26.329Z,95762.23
2018-11-28T23:05:55.722Z,95754.67
2018-11-28T23:08:25.056Z,95762.61
2018-11-28T23:10:54.397Z,95758.47
2018-11-28T23:13:25.308Z,95754.30
2018-11-28T23:15:54.668Z,95746.67
2018-11-28T23:18:24.080Z,95748.40
2018-11-28T23:20:53.456Z,95740.59
2018-11-28T23:23:22.847Z,95747.25
2018-11-28T23:25:53.295Z,95740.83
2018-11-28T23:28:22.662Z,95741.36
2018-11-28T23:30:52.040Z,95743.62
2018-11-28T23:33:21.376Z,95736.81
2018-11-28T23:35:50.756Z,95733.11
2018-11-28T23:38:21.661Z,95730.95
2018-11-28T23:40:51.005Z,95725.18
2018-11-28T23:43:20.354Z,95717.87
2018-11-28T23:45:49.713Z,95706.77
2018-11-28T23:48:19.131Z,95702.32
2018-11-28T23:50:48.471Z,95700.28
2018-11-28T23:53:17.876Z,95699.59
2018-11-28T23:55:47.216Z,95698.35
2018-11-28T23:58:16.573Z,95689.14
